To NAV CANADA Home Page Login to a new session Search on AWWS site Feedback and Comments Disclaimer Vers la page française équivalente Tips FAQ What's new on the site To the Forecasts and Observations / NOTAM section To "File a Flight Plan" website Publications and other links Update of the User's profile FIC Telephone Numbers My Weather Data Folder Route Weather Data Regional Weather Data Local Weather Data To the Forecasts and Observations / NOTAM section
Request Generated 03/28/2015 at 16:01:20 UTC . Weather information available at that time is displayed.

METAR/TAF

TRENTON/ON    

METAR CYTR 281500Z 35010G16KT 15SM SKC M07/M17 A3014 RMK SLP213=
METAR CYTR 281400Z 36008KT 15SM SKC M08/M17 A3014 RMK SLP214=
METAR CYTR 281300Z 01010KT 15SM FEW100 M10/M16 A3013 RMK AC1 SLP209=

TAF CYTR 281130Z 2812/2912 01010KT P6SM FEW100
FM281400 35015KT P6SM SKC
BECMG 2900/2902 32008KT
RMK NXT FCST BY 281800Z=
Your time UTC time
Weather data provided by Environment Canada and NAV CANADA